sensor_id;sensor_type;location;lat;lon;timestamp;pressure;altitude;pressure_sealevel;temperature;humidity
53550;BME280;67273;52.914;-0.982;2023-04-27T00:02:14;101557.09;;;19.08;42.03
53550;BME280;67273;52.914;-0.982;2023-04-27T00:04:40;101558.13;;;19.07;41.93
53550;BME280;67273;52.914;-0.982;2023-04-27T00:07:07;101550.19;;;19.06;42.06
53550;BME280;67273;52.914;-0.982;2023-04-27T00:09:33;101554.78;;;19.05;42.00
53550;BME280;67273;52.914;-0.982;2023-04-27T00:11:59;101556.91;;;19.03;41.67
53550;BME280;67273;52.914;-0.982;2023-04-27T00:14:25;101558.78;;;19.03;41.92
53550;BME280;67273;52.914;-0.982;2023-04-27T00:16:52;101550.59;;;19.03;41.98
53550;BME280;67273;52.914;-0.982;2023-04-27T00:19:19;101552.72;;;19.00;42.01
53550;BME280;67273;52.914;-0.982;2023-04-27T00:21:45;101542.91;;;18.99;42.09
53550;BME280;67273;52.914;-0.982;2023-04-27T00:24:11;101539.31;;;18.99;41.89
53550;BME280;67273;52.914;-0.982;2023-04-27T00:26:37;101543.94;;;18.98;42.04
53550;BME280;67273;52.914;-0.982;2023-04-27T00:29:03;101531.41;;;18.97;41.96
53550;BME280;67273;52.914;-0.982;2023-04-27T00:31:28;101528.88;;;18.96;42.03
53550;BME280;67273;52.914;-0.982;2023-04-27T00:33:55;101520.72;;;18.96;42.06
53550;BME280;67273;52.914;-0.982;2023-04-27T00:36:22;101521.75;;;18.95;42.21
53550;BME280;67273;52.914;-0.982;2023-04-27T00:38:48;101518.44;;;18.93;42.00
53550;BME280;67273;52.914;-0.982;2023-04-27T00:41:13;101517.59;;;18.92;42.00
53550;BME280;67273;52.914;-0.982;2023-04-27T00:43:42;101514.88;;;18.92;41.66
53550;BME280;67273;52.914;-0.982;2023-04-27T00:46:08;101506.94;;;18.91;41.90
53550;BME280;67273;52.914;-0.982;2023-04-27T00:48:34;101503.38;;;18.90;42.04
53550;BME280;67273;52.914;-0.982;2023-04-27T00:51:01;101496.25;;;18.89;42.00
53550;BME280;67273;52.914;-0.982;2023-04-27T00:53:28;101492.72;;;18.89;42.30
53550;BME280;67273;52.914;-0.982;2023-04-27T00:55:55;101491.03;;;18.88;41.89
53550;BME280;67273;52.914;-0.982;2023-04-27T00:58:22;101493.75;;;18.88;42.07
53550;BME280;67273;52.914;-0.982;2023-04-27T01:00:48;101497.53;;;18.87;41.95
53550;BME280;67273;52.914;-0.982;2023-04-27T01:03:13;101488.72;;;18.85;41.92
53550;BME280;67273;52.914;-0.982;2023-04-27T01:05:40;101488.72;;;18.85;41.94
53550;BME280;67273;52.914;-0.982;2023-04-27T01:08:06;101487.09;;;18.84;42.09
53550;BME280;67273;52.914;-0.982;2023-04-27T01:10:34;101487.09;;;18.84;41.91
53550;BME280;67273;52.914;-0.982;2023-04-27T01:13:02;101479.13;;;18.82;41.97
53550;BME280;67273;52.914;-0.982;2023-04-27T01:15:29;101472.84;;;18.82;41.88
53550;BME280;67273;52.914;-0.982;2023-04-27T01:17:56;101476.59;;;18.80;42.02
53550;BME280;67273;52.914;-0.982;2023-04-27T01:20:24;101482.84;;;18.81;41.94
53550;BME280;67273;52.914;-0.982;2023-04-27T01:22:55;101480.34;;;18.79;41.92
53550;BME280;67273;52.914;-0.982;2023-04-27T01:25:23;101481.44;;;18.78;41.97
53550;BME280;67273;52.914;-0.982;2023-04-27T01:27:50;101492.31;;;18.78;41.77
53550;BME280;67273;52.914;-0.982;2023-04-27T01:30:19;101483.31;;;18.78;41.79
53550;BME280;67273;52.914;-0.982;2023-04-27T01:32:49;101490.63;;;18.77;41.96
53550;BME280;67273;52.914;-0.982;2023-04-27T01:35:20;101490.84;;;18.76;41.76
53550;BME280;67273;52.914;-0.982;2023-04-27T01:37:49;101495.47;;;18.75;41.89
53550;BME280;67273;52.914;-0.982;2023-04-27T01:40:18;101504.72;;;18.74;42.01
53550;BME280;67273;52.914;-0.982;2023-04-27T01:42:51;101497.59;;;18.73;41.78
53550;BME280;67273;52.914;-0.982;2023-04-27T01:45:19;101501.97;;;18.74;41.84
53550;BME280;67273;52.914;-0.982;2023-04-27T01:47:50;101502.19;;;18.73;41.81
53550;BME280;67273;52.914;-0.982;2023-04-27T01:50:22;101504.06;;;18.72;41.79
53550;BME280;67273;52.914;-0.982;2023-04-27T01:52:51;101512.22;;;18.72;41.70
53550;BME280;67273;52.914;-0.982;2023-04-27T01:55:22;101503.47;;;18.70;41.85
53550;BME280;67273;52.914;-0.982;2023-04-27T01:57:53;101500.72;;;18.70;42.12
53550;BME280;67273;52.914;-0.982;2023-04-27T02:00:22;101501.81;;;18.69;41.71
53550;BME280;67273;52.914;-0.982;2023-04-27T02:02:53;101500.13;;;18.68;41.67
53550;BME280;67273;52.914;-0.982;2023-04-27T02:05:23;101505.56;;;18.68;41.77
53550;BME280;67273;52.914;-0.982;2023-04-27T02:07:53;101508.50;;;18.67;41.71
53550;BME280;67273;52.914;-0.982;2023-04-27T02:10:22;101502.22;;;18.66;41.85
53550;BME280;67273;52.914;-0.982;2023-04-27T02:12:57;101501.41;;;18.66;41.85
53550;BME280;67273;52.914;-0.982;2023-04-27T02:15:26;101500.56;;;18.65;41.76
53550;BME280;67273;52.914;-0.982;2023-04-27T02:17:54;101498.91;;;18.64;41.76
53550;BME280;67273;52.914;-0.982;2023-04-27T02:20:24;101506.25;;;18.64;41.76
53550;BME280;67273;52.914;-0.982;2023-04-27T02:22:53;101501.00;;;18.62;41.63
53550;BME280;67273;52.914;-0.982;2023-04-27T02:25:22;101505.59;;;18.61;41.75
53550;BME280;67273;52.914;-0.982;2023-04-27T02:27:50;101494.72;;;18.61;41.83
53550;BME280;67273;52.914;-0.982;2023-04-27T02:30:21;101506.88;;;18.59;41.62
53550;BME280;67273;52.914;-0.982;2023-04-27T02:32:48;101506.88;;;18.59;41.75
53550;BME280;67273;52.914;-0.982;2023-04-27T02:35:16;101499.75;;;18.58;41.68
53550;BME280;67273;52.914;-0.982;2023-04-27T02:37:42;101505.19;;;18.58;41.85
53550;BME280;67273;52.914;-0.982;2023-04-27T02:40:10;101503.56;;;18.57;41.75
53550;BME280;67273;52.914;-0.982;2023-04-27T02:42:39;101499.97;;;18.56;41.68
53550;BME280;67273;52.914;-0.982;2023-04-27T02:45:12;101504.59;;;18.56;41.77
53550;BME280;67273;52.914;-0.982;2023-04-27T02:47:43;101505.66;;;18.55;41.64
53550;BME280;67273;52.914;-0.982;2023-04-27T02:50:13;101500.22;;;18.55;41.52
53550;BME280;67273;52.914;-0.982;2023-04-27T02:52:42;101503.97;;;18.54;41.72
53550;BME280;67273;52.914;-0.982;2023-04-27T02:55:10;101501.47;;;18.52;41.53
53550;BME280;67273;52.914;-0.982;2023-04-27T02:57:39;101492.28;;;18.53;41.61
53550;BME280;67273;52.914;-0.982;2023-04-27T03:00:08;101487.03;;;18.52;41.67
53550;BME280;67273;52.914;-0.982;2023-04-27T03:02:37;101489.97;;;18.50;41.68
53550;BME280;67273;52.914;-0.982;2023-04-27T03:05:08;101486.44;;;18.50;41.77
53550;BME280;67273;52.914;-0.982;2023-04-27T03:07:37;101491.88;;;18.50;41.59
53550;BME280;67273;52.914;-0.982;2023-04-27T03:10:07;101490.19;;;18.49;41.62
53550;BME280;67273;52.914;-0.982;2023-04-27T03:12:36;101491.25;;;18.48;41.62
53550;BME280;67273;52.914;-0.982;2023-04-27T03:15:04;101486.84;;;18.47;41.63
53550;BME280;67273;52.914;-0.982;2023-04-27T03:17:32;101495.84;;;18.47;41.64
53550;BME280;67273;52.914;-0.982;2023-04-27T03:20:01;101486.84;;;18.47;41.66
53550;BME280;67273;52.914;-0.982;2023-04-27T03:22:31;101484.34;;;18.45;41.60
53550;BME280;67273;52.914;-0.982;2023-04-27T03:24:57;101485.19;;;18.46;41.64
53550;BME280;67273;52.914;-0.982;2023-04-27T03:27:22;101485.19;;;18.46;41.63
53550;BME280;67273;52.914;-0.982;2023-04-27T03:29:50;101481.00;;;18.43;41.76
53550;BME280;67273;52.914;-0.982;2023-04-27T03:32:16;101472.84;;;18.43;41.59
53550;BME280;67273;52.914;-0.982;2023-04-27T03:34:42;101472.03;;;18.42;41.68
53550;BME280;67273;52.914;-0.982;2023-04-27T03:37:07;101463.88;;;18.42;41.67
53550;BME280;67273;52.914;-0.982;2023-04-27T03:39:37;101467.63;;;18.41;41.63
53550;BME280;67273;52.914;-0.982;2023-04-27T03:42:05;101460.53;;;18.40;41.61
53550;BME280;67273;52.914;-0.982;2023-04-27T03:44:34;101456.97;;;18.40;41.48
53550;BME280;67273;52.914;-0.982;2023-04-27T03:47:01;101470.56;;;18.40;41.67
53550;BME280;67273;52.914;-0.982;2023-04-27T03:49:27;101467.22;;;18.38;41.53
53550;BME280;67273;52.914;-0.982;2023-04-27T03:51:55;101456.34;;;18.38;41.65
53550;BME280;67273;52.914;-0.982;2023-04-27T03:54:24;101457.16;;;18.38;41.63
53550;BME280;67273;52.914;-0.982;2023-04-27T03:56:52;101455.53;;;18.37;41.64
53550;BME280;67273;52.914;-0.982;2023-04-27T03:59:18;101451.13;;;18.36;41.63
53550;BME280;67273;52.914;-0.982;2023-04-27T04:01:48;101453.00;;;18.36;41.63
53550;BME280;67273;52.914;-0.982;2023-04-27T04:04:13;101444.25;;;18.34;41.88
53550;BME280;67273;52.914;-0.982;2023-04-27T04:06:41;101447.78;;;18.34;41.56
53550;BME280;67273;52.914;-0.982;2023-04-27T04:09:06;101440.66;;;18.33;41.54
53550;BME280;67273;52.914;-0.982;2023-04-27T04:11:32;101433.56;;;18.32;41.68
53550;BME280;67273;52.914;-0.982;2023-04-27T04:14:01;101437.13;;;18.33;41.63
53550;BME280;67273;52.914;-0.982;2023-04-27T04:16:28;101439.00;;;18.32;41.71
53550;BME280;67273;52.914;-0.982;2023-04-27T04:18:54;101434.63;;;18.31;41.71
53550;BME280;67273;52.914;-0.982;2023-04-27T04:21:20;101433.78;;;18.31;41.58
53550;BME280;67273;52.914;-0.982;2023-04-27T04:23:47;101433.78;;;18.31;41.68
53550;BME280;67273;52.914;-0.982;2023-04-27T04:26:13;101434.00;;;18.29;41.56
53550;BME280;67273;52.914;-0.982;2023-04-27T04:28:39;101432.97;;;18.30;41.68
53550;BME280;67273;52.914;-0.982;2023-04-27T04:31:06;101435.91;;;18.29;41.74
53550;BME280;67273;52.914;-0.982;2023-04-27T04:33:34;101428.56;;;18.29;41.60
53550;BME280;67273;52.914;-0.982;2023-04-27T04:36:02;101427.13;;;18.27;41.63
53550;BME280;67273;52.914;-0.982;2023-04-27T04:38:29;101431.72;;;18.26;41.72
53550;BME280;67273;52.914;-0.982;2023-04-27T04:40:55;101427.94;;;18.27;41.67
53550;BME280;67273;52.914;-0.982;2023-04-27T04:43:20;101430.88;;;18.26;41.69
53550;BME280;67273;52.914;-0.982;2023-04-27T04:45:47;101421.91;;;18.25;41.70
53550;BME280;67273;52.914;-0.982;2023-04-27T04:48:14;101426.25;;;18.26;41.58
53550;BME280;67273;52.914;-0.982;2023-04-27T04:50:40;101429.44;;;18.23;41.72
53550;BME280;67273;52.914;-0.982;2023-04-27T04:53:06;101425.03;;;18.22;41.60
53550;BME280;67273;52.914;-0.982;2023-04-27T04:55:32;101434.88;;;18.23;41.62
53550;BME280;67273;52.914;-0.982;2023-04-27T04:57:58;101425.03;;;18.22;41.68
53550;BME280;67273;52.914;-0.982;2023-04-27T05:00:27;101420.69;;;18.21;41.66
53550;BME280;67273;52.914;-0.982;2023-04-27T05:02:52;101421.50;;;18.21;41.66
53550;BME280;67273;52.914;-0.982;2023-04-27T05:05:19;101420.69;;;18.21;41.64
53550;BME280;67273;52.914;-0.982;2023-04-27T05:07:45;101424.44;;;18.20;41.63
53550;BME280;67273;52.914;-0.982;2023-04-27T05:10:11;101417.94;;;18.21;41.49
53550;BME280;67273;52.914;-0.982;2023-04-27T05:12:37;101427.16;;;18.20;41.60
53550;BME280;67273;52.914;-0.982;2023-04-27T05:15:03;101427.16;;;18.20;41.62
53550;BME280;67273;52.914;-0.982;2023-04-27T05:17:29;101420.03;;;18.19;41.75
53550;BME280;67273;52.914;-0.982;2023-04-27T05:19:55;101428.19;;;18.19;41.56
53550;BME280;67273;52.914;-0.982;2023-04-27T05:22:23;101436.34;;;18.19;41.56
53550;BME280;67273;52.914;-0.982;2023-04-27T05:24:49;101429.25;;;18.18;41.53
53550;BME280;67273;52.914;-0.982;2023-04-27T05:27:15;101434.69;;;18.18;41.45
53550;BME280;67273;52.914;-0.982;2023-04-27T05:29:41;101434.69;;;18.18;41.72
53550;BME280;67273;52.914;-0.982;2023-04-27T05:32:07;101433.03;;;18.17;41.68
53550;BME280;67273;52.914;-0.982;2023-04-27T05:34:32;101437.22;;;18.19;41.60
53550;BME280;67273;52.914;-0.982;2023-04-27T05:36:58;101430.88;;;18.26;41.64
53550;BME280;67273;52.914;-0.982;2023-04-27T05:39:25;101436.28;;;18.32;41.56
53550;BME280;67273;52.914;-0.982;2023-04-27T05:41:52;101442.09;;;18.42;41.33
53550;BME280;67273;52.914;-0.982;2023-04-27T05:44:18;101442.44;;;18.53;41.15
53550;BME280;67273;52.914;-0.982;2023-04-27T05:46:44;101443.19;;;18.67;41.08
53550;BME280;67273;52.914;-0.982;2023-04-27T05:49:09;101447.28;;;18.83;40.67
53550;BME280;67273;52.914;-0.982;2023-04-27T05:51:35;101447.63;;;18.93;40.46
53550;BME280;67273;52.914;-0.982;2023-04-27T05:54:03;101443.34;;;19.04;40.20
53550;BME280;67273;52.914;-0.982;2023-04-27T05:56:30;101441.63;;;19.09;40.22
53550;BME280;67273;52.914;-0.982;2023-04-27T05:58:55;101435.28;;;19.15;40.19
53550;BME280;67273;52.914;-0.982;2023-04-27T06:01:21;101440.28;;;19.18;40.14
53550;BME280;67273;52.914;-0.982;2023-04-27T06:03:47;101437.94;;;19.22;40.04
53550;BME280;67273;52.914;-0.982;2023-04-27T06:06:13;101437.28;;;19.27;40.04
53550;BME280;67273;52.914;-0.982;2023-04-27T06:08:39;101436.84;;;19.30;40.01
53550;BME280;67273;52.914;-0.982;2023-04-27T06:11:05;101431.38;;;19.30;40.07
53550;BME280;67273;52.914;-0.982;2023-04-27T06:13:32;101425.50;;;19.33;40.14
53550;BME280;67273;52.914;-0.982;2023-04-27T06:15:58;101425.25;;;19.34;40.14
53550;BME280;67273;52.914;-0.982;2023-04-27T06:18:24;101423.38;;;19.35;39.99
53550;BME280;67273;52.914;-0.982;2023-04-27T06:20:50;101421.47;;;19.35;39.94
53550;BME280;67273;52.914;-0.982;2023-04-27T06:23:15;101428.59;;;19.36;40.02
53550;BME280;67273;52.914;-0.982;2023-04-27T06:25:41;101425.88;;;19.36;40.10
53550;BME280;67273;52.914;-0.982;2023-04-27T06:28:07;101425.00;;;19.36;40.48
53550;BME280;67273;52.914;-0.982;2023-04-27T06:30:34;101424.25;;;19.29;40.88
53550;BME280;67273;52.914;-0.982;2023-04-27T06:33:00;101425.25;;;19.34;41.01
53550;BME280;67273;52.914;-0.982;2023-04-27T06:35:26;101417.44;;;19.38;40.89
53550;BME280;67273;52.914;-0.982;2023-04-27T06:37:52;101425.63;;;19.38;40.70
53550;BME280;67273;52.914;-0.982;2023-04-27T06:40:17;101416.41;;;19.39;40.60
53550;BME280;67273;52.914;-0.982;2023-04-27T06:42:43;101409.06;;;19.40;40.57
53550;BME280;67273;52.914;-0.982;2023-04-27T06:45:09;101413.44;;;19.41;40.57
53550;BME280;67273;52.914;-0.982;2023-04-27T06:47:37;101409.66;;;19.42;40.61
53550;BME280;67273;52.914;-0.982;2023-04-27T06:50:03;101413.22;;;19.42;40.35
53550;BME280;67273;52.914;-0.982;2023-04-27T06:52:30;101405.88;;;19.43;40.45
53550;BME280;67273;52.914;-0.982;2023-04-27T06:54:57;101408.59;;;19.43;40.35
53550;BME280;67273;52.914;-0.982;2023-04-27T06:57:22;101403.97;;;19.43;40.42
53550;BME280;67273;52.914;-0.982;2023-04-27T06:59:49;101405.88;;;19.43;40.21
53550;BME280;67273;52.914;-0.982;2023-04-27T07:02:15;101401.25;;;19.43;40.39
53550;BME280;67273;52.914;-0.982;2023-04-27T07:04:42;101405.66;;;19.44;40.26
53550;BME280;67273;52.914;-0.982;2023-04-27T07:07:08;101404.84;;;19.44;40.39
53550;BME280;67273;52.914;-0.982;2023-04-27T07:09:34;101398.53;;;19.43;40.44
53550;BME280;67273;52.914;-0.982;2023-04-27T07:11:59;101397.72;;;19.43;40.33
53550;BME280;67273;52.914;-0.982;2023-04-27T07:14:26;101396.88;;;19.42;40.35
53550;BME280;67273;52.914;-0.982;2023-04-27T07:16:51;101398.53;;;19.43;40.40
53550;BME280;67273;52.914;-0.982;2023-04-27T07:19:17;101400.28;;;19.37;40.89
53550;BME280;67273;52.914;-0.982;2023-04-27T07:21:44;101394.00;;;19.37;40.81
53550;BME280;67273;52.914;-0.982;2023-04-27T07:24:10;101400.88;;;19.40;40.74
53550;BME280;67273;52.914;-0.982;2023-04-27T07:26:35;101404.47;;;19.40;40.67
53550;BME280;67273;52.914;-0.982;2023-04-27T07:29:02;101404.47;;;19.40;40.54
53550;BME280;67273;52.914;-0.982;2023-04-27T07:31:27;101399.81;;;19.41;40.52
53550;BME280;67273;52.914;-0.982;2023-04-27T07:33:53;101407.19;;;19.40;40.46
53550;BME280;67273;52.914;-0.982;2023-04-27T07:36:19;101402.78;;;19.39;40.53
53550;BME280;67273;52.914;-0.982;2023-04-27T07:38:46;101416.41;;;19.39;40.46
53550;BME280;67273;52.914;-0.982;2023-04-27T07:41:12;101413.69;;;19.39;40.52
53550;BME280;67273;52.914;-0.982;2023-04-27T07:43:38;101417.44;;;19.38;40.49
53550;BME280;67273;52.914;-0.982;2023-04-27T07:46:04;101424.56;;;19.39;40.36
53550;BME280;67273;52.914;-0.982;2023-04-27T07:48:30;101425.63;;;19.38;40.40
53550;BME280;67273;52.914;-0.982;2023-04-27T07:50:57;101422.91;;;19.38;40.52
53550;BME280;67273;52.914;-0.982;2023-04-27T07:53:22;101427.53;;;19.37;40.47
53550;BME280;67273;52.914;-0.982;2023-04-27T07:55:49;101423.97;;;19.37;40.60
53550;BME280;67273;52.914;-0.982;2023-04-27T07:58:15;101428.59;;;19.36;40.52
53550;BME280;67273;52.914;-0.982;2023-04-27T08:00:41;101426.69;;;19.37;40.60
53550;BME280;67273;52.914;-0.982;2023-04-27T08:03:07;101429.66;;;19.35;40.56
53550;BME280;67273;52.914;-0.982;2023-04-27T08:05:33;101421.47;;;19.35;40.41
53550;BME280;67273;52.914;-0.982;2023-04-27T08:07:59;101419.56;;;19.36;40.34
53550;BME280;67273;52.914;-0.982;2023-04-27T08:10:25;101425.00;;;19.36;40.38
53550;BME280;67273;52.914;-0.982;2023-04-27T08:12:52;101407.03;;;19.35;40.37
53550;BME280;67273;52.914;-0.982;2023-04-27T08:15:19;101416.84;;;19.36;40.42
53550;BME280;67273;52.914;-0.982;2023-04-27T08:17:45;101401.56;;;19.35;40.41
53550;BME280;67273;52.914;-0.982;2023-04-27T08:20:11;101403.22;;;19.36;40.53
53550;BME280;67273;52.914;-0.982;2023-04-27T08:22:37;101403.22;;;19.36;40.36
53550;BME280;67273;52.914;-0.982;2023-04-27T08:25:04;101396.13;;;19.35;40.32
53550;BME280;67273;52.914;-0.982;2023-04-27T08:27:30;101385.22;;;19.35;40.30
53550;BME280;67273;52.914;-0.982;2023-04-27T08:29:57;101389.81;;;19.34;40.25
53550;BME280;67273;52.914;-0.982;2023-04-27T08:32:25;101384.38;;;19.34;40.24
53550;BME280;67273;52.914;-0.982;2023-04-27T08:34:51;101389.81;;;19.34;40.36
53550;BME280;67273;52.914;-0.982;2023-04-27T08:37:16;101382.72;;;19.33;40.15
53550;BME280;67273;52.914;-0.982;2023-04-27T08:39:43;101378.09;;;19.34;40.21
53550;BME280;67273;52.914;-0.982;2023-04-27T08:42:12;101377.28;;;19.33;40.24
53550;BME280;67273;52.914;-0.982;2023-04-27T08:44:38;101368.28;;;19.33;40.25
53550;BME280;67273;52.914;-0.982;2023-04-27T08:47:06;101370.16;;;19.32;40.39
53550;BME280;67273;52.914;-0.982;2023-04-27T08:49:32;101359.25;;;19.32;40.35
53550;BME280;67273;52.914;-0.982;2023-04-27T08:51:58;101359.25;;;19.32;40.24
53550;BME280;67273;52.914;-0.982;2023-04-27T08:54:23;101358.41;;;19.32;40.18
53550;BME280;67273;52.914;-0.982;2023-04-27T08:56:49;101365.53;;;19.33;40.19
53550;BME280;67273;52.914;-0.982;2023-04-27T08:59:15;101351.28;;;19.31;40.19
53550;BME280;67273;52.914;-0.982;2023-04-27T09:01:45;101348.56;;;19.31;40.40
53550;BME280;67273;52.914;-0.982;2023-04-27T09:04:14;101346.69;;;19.31;40.44
53550;BME280;67273;52.914;-0.982;2023-04-27T09:06:40;101344.19;;;19.30;40.50
53550;BME280;67273;52.914;-0.982;2023-04-27T09:09:06;101344.19;;;19.30;40.56
53550;BME280;67273;52.914;-0.982;2023-04-27T09:11:33;101338.75;;;19.30;40.58
53550;BME280;67273;52.914;-0.982;2023-04-27T09:14:01;101336.03;;;19.30;40.63
53550;BME280;67273;52.914;-0.982;2023-04-27T09:16:28;101344.19;;;19.30;40.58
53550;BME280;67273;52.914;-0.982;2023-04-27T09:18:55;101343.38;;;19.29;40.67
53550;BME280;67273;52.914;-0.982;2023-04-27T09:21:23;101339.56;;;19.30;40.54
53550;BME280;67273;52.914;-0.982;2023-04-27T09:23:50;101333.31;;;19.30;40.52
53550;BME280;67273;52.914;-0.982;2023-04-27T09:26:18;101328.91;;;19.29;40.55
53550;BME280;67273;52.914;-0.982;2023-04-27T09:28:47;101326.16;;;19.29;40.63
53550;BME280;67273;52.914;-0.982;2023-04-27T09:31:14;101331.63;;;19.29;40.58
53550;BME280;67273;52.914;-0.982;2023-04-27T09:33:40;101321.81;;;19.28;40.64
53550;BME280;67273;52.914;-0.982;2023-04-27T09:36:06;101317.41;;;19.27;40.58
53550;BME280;67273;52.914;-0.982;2023-04-27T09:38:33;101312.78;;;19.27;40.51
53550;BME280;67273;52.914;-0.982;2023-04-27T09:40:59;101314.06;;;19.25;40.58
53550;BME280;67273;52.914;-0.982;2023-04-27T09:43:25;101317.63;;;19.25;40.70
53550;BME280;67273;52.914;-0.982;2023-04-27T09:45:53;101319.53;;;19.25;40.64
53550;BME280;67273;52.914;-0.982;2023-04-27T09:48:20;101316.78;;;19.25;40.58
53550;BME280;67273;52.914;-0.982;2023-04-27T09:50:48;101312.41;;;19.24;40.79
53550;BME280;67273;52.914;-0.982;2023-04-27T09:53:16;101318.69;;;19.24;40.59
53550;BME280;67273;52.914;-0.982;2023-04-27T09:55:49;101318.69;;;19.24;40.73
53550;BME280;67273;52.914;-0.982;2023-04-27T09:58:35;101312.63;;;19.22;40.67
53550;BME280;67273;52.914;-0.982;2023-04-27T10:01:08;101309.91;;;19.22;40.78
53550;BME280;67273;52.914;-0.982;2023-04-27T10:03:44;101302.56;;;19.23;40.70
53550;BME280;67273;52.914;-0.982;2023-04-27T10:06:45;101308.03;;;19.23;40.71
53550;BME280;67273;52.914;-0.982;2023-04-27T10:09:19;101305.31;;;19.23;40.70
53550;BME280;67273;52.914;-0.982;2023-04-27T10:11:50;101300.91;;;19.22;40.75
53550;BME280;67273;52.914;-0.982;2023-04-27T10:14:18;101303.63;;;19.22;40.79
53550;BME280;67273;52.914;-0.982;2023-04-27T10:16:44;101306.34;;;19.22;40.78
53550;BME280;67273;52.914;-0.982;2023-04-27T10:19:12;101301.97;;;19.21;40.86
53550;BME280;67273;52.914;-0.982;2023-04-27T10:21:38;101304.91;;;19.19;40.75
53550;BME280;67273;52.914;-0.982;2023-04-27T10:24:15;101299.47;;;19.19;40.90
53550;BME280;67273;52.914;-0.982;2023-04-27T10:26:45;101303.25;;;19.18;40.79
53550;BME280;67273;52.914;-0.982;2023-04-27T10:29:12;101290.69;;;19.17;40.83
53550;BME280;67273;52.914;-0.982;2023-04-27T10:31:42;101300.75;;;19.16;40.86
53550;BME280;67273;52.914;-0.982;2023-04-27T10:34:09;101299.09;;;19.15;41.01
53550;BME280;67273;52.914;-0.982;2023-04-27T10:36:35;101289.25;;;19.14;40.84
53550;BME280;67273;52.914;-0.982;2023-04-27T10:39:02;101291.16;;;19.14;40.89
53550;BME280;67273;52.914;-0.982;2023-04-27T10:41:34;101290.31;;;19.13;40.93
53550;BME280;67273;52.914;-0.982;2023-04-27T10:44:15;101283.19;;;19.12;41.05
53550;BME280;67273;52.914;-0.982;2023-04-27T10:46:49;101289.69;;;19.11;41.01
53550;BME280;67273;52.914;-0.982;2023-04-27T10:49:15;101281.53;;;19.11;40.97
53550;BME280;67273;52.914;-0.982;2023-04-27T10:51:41;101275.47;;;19.09;41.02
53550;BME280;67273;52.914;-0.982;2023-04-27T10:54:07;101289.94;;;19.10;41.01
53550;BME280;67273;52.914;-0.982;2023-04-27T10:56:33;101279.88;;;19.10;41.01
53550;BME280;67273;52.914;-0.982;2023-04-27T10:59:01;101278.19;;;19.09;40.92
53550;BME280;67273;52.914;-0.982;2023-04-27T11:01:29;101271.09;;;19.08;41.03
53550;BME280;67273;52.914;-0.982;2023-04-27T11:03:54;101267.31;;;19.09;41.03
53550;BME280;67273;52.914;-0.982;2023-04-27T11:06:21;101265.66;;;19.08;41.07
53550;BME280;67273;52.914;-0.982;2023-04-27T11:08:47;101259.34;;;19.08;40.97
53550;BME280;67273;52.914;-0.982;2023-04-27T11:11:13;101258.53;;;19.07;41.04
53550;BME280;67273;52.914;-0.982;2023-04-27T11:13:41;101251.44;;;19.06;41.05
53550;BME280;67273;52.914;-0.982;2023-04-27T11:16:08;101247.88;;;19.06;40.86
53550;BME280;67273;52.914;-0.982;2023-04-27T11:18:36;101247.88;;;19.06;41.16
53550;BME280;67273;52.914;-0.982;2023-04-27T11:21:06;101244.31;;;19.05;40.90
53550;BME280;67273;52.914;-0.982;2023-04-27T11:23:33;101243.50;;;19.05;41.10
53550;BME280;67273;52.914;-0.982;2023-04-27T11:26:09;101244.31;;;19.05;41.02
53550;BME280;67273;52.914;-0.982;2023-04-27T11:28:35;101242.63;;;19.04;40.98
53550;BME280;67273;52.914;-0.982;2023-04-27T11:31:01;101241.00;;;19.03;41.05
53550;BME280;67273;52.914;-0.982;2023-04-27T11:33:29;101232.81;;;19.03;41.11
53550;BME280;67273;52.914;-0.982;2023-04-27T11:35:56;101235.53;;;19.03;41.06
53550;BME280;67273;52.914;-0.982;2023-04-27T11:38:22;101223.81;;;19.03;41.11
53550;BME280;67273;52.914;-0.982;2023-04-27T11:40:58;101222.97;;;19.02;41.15
53550;BME280;67273;52.914;-0.982;2023-04-27T11:43:24;101211.25;;;19.02;41.12
53550;BME280;67273;52.914;-0.982;2023-04-27T11:45:50;101214.00;;;19.02;41.12
53550;BME280;67273;52.914;-0.982;2023-04-27T11:48:16;101200.38;;;19.02;41.10
53550;BME280;67273;52.914;-0.982;2023-04-27T11:50:45;101188.66;;;19.01;41.17
53550;BME280;67273;52.914;-0.982;2023-04-27T11:53:13;101188.66;;;19.01;41.06
53550;BME280;67273;52.914;-0.982;2023-04-27T11:55:39;101191.38;;;19.01;41.12
53550;BME280;67273;52.914;-0.982;2023-04-27T11:58:05;101185.69;;;19.03;41.06
53550;BME280;67273;52.914;-0.982;2023-04-27T12:00:31;101187.56;;;19.02;41.17
53550;BME280;67273;52.914;-0.982;2023-04-27T12:02:57;101185.69;;;19.03;41.16
53550;BME280;67273;52.914;-0.982;2023-04-27T12:05:23;101179.41;;;19.02;41.31
53550;BME280;67273;52.914;-0.982;2023-04-27T12:07:49;101177.75;;;19.01;41.22
53550;BME280;67273;52.914;-0.982;2023-04-27T12:10:16;101175.03;;;19.01;41.11
53550;BME280;67273;52.914;-0.982;2023-04-27T12:12:43;101178.59;;;19.02;41.14
53550;BME280;67273;52.914;-0.982;2023-04-27T12:15:09;101172.06;;;19.03;41.17
53550;BME280;67273;52.914;-0.982;2023-04-27T12:17:35;101171.25;;;19.02;41.18
53550;BME280;67273;52.914;-0.982;2023-04-27T12:20:01;101171.25;;;19.02;41.25
53550;BME280;67273;52.914;-0.982;2023-04-27T12:22:28;101170.41;;;19.02;41.25
53550;BME280;67273;52.914;-0.982;2023-04-27T12:24:53;101167.69;;;19.02;41.29
53550;BME280;67273;52.914;-0.982;2023-04-27T12:27:20;101171.47;;;19.00;41.31
53550;BME280;67273;52.914;-0.982;2023-04-27T12:29:46;101169.81;;;18.99;41.36
53550;BME280;67273;52.914;-0.982;2023-04-27T12:32:12;101169.22;;;18.97;41.35
53550;BME280;67273;52.914;-0.982;2023-04-27T12:34:38;101173.59;;;18.98;41.31
53550;BME280;67273;52.914;-0.982;2023-04-27T12:37:04;101179.84;;;18.99;41.38
53550;BME280;67273;52.914;-0.982;2023-04-27T12:39:30;101171.09;;;18.97;41.36
53550;BME280;67273;52.914;-0.982;2023-04-27T12:41:55;101164.00;;;18.96;41.27